Time;durP1;ratioP1;P1;durP2;ratioP2;P2;SDS_P1;SDS_P2;PMS_P1;PMS_P2;Temp;Humidity;BMP_temperature;BMP_pressure;BME280_temperature;BME280_humidity;BME280_pressure;Samples;Min_cycle;Max_cycle;Signal;HPM_P1;HPM_P2
2023/03/26 00:01:35;;;;;;;5.32;1.00;;;8.60;1.00;;;;;;5008858;28;20034;-76
2023/03/26 00:04:03;;;;;;;7.18;1.30;;;8.50;1.00;;;;;;5006117;28;20030;-75
2023/03/26 00:06:37;;;;;;;4.80;1.25;;;8.40;1.00;;;;;;5007236;28;20038;-76
2023/03/26 00:09:06;;;;;;;7.18;1.40;;;8.40;1.00;;;;;;4999533;28;20034;-75
2023/03/26 00:11:33;;;;;;;5.07;1.20;;;8.30;1.00;;;;;;5007602;28;20049;-76
2023/03/26 00:13:59;;;;;;;5.00;1.45;;;8.30;1.00;;;;;;5002086;28;20196;-76
2023/03/26 00:16:28;;;;;;;3.45;0.98;;;8.40;1.00;;;;;;5009194;28;20035;-75
2023/03/26 00:18:55;;;;;;;2.85;0.90;;;8.40;1.00;;;;;;4995354;28;20042;-75
2023/03/26 00:21:27;;;;;;;6.97;1.20;;;8.30;1.00;;;;;;4999227;28;20034;-76
2023/03/26 00:24:03;;;;;;;2.70;0.90;;;8.20;1.00;;;;;;5007062;28;20053;-76
2023/03/26 00:26:31;;;;;;;7.20;1.48;;;8.10;1.00;;;;;;5002622;28;20045;-75
2023/03/26 00:28:59;;;;;;;5.35;1.30;;;8.00;1.00;;;;;;5007215;28;20498;-75
2023/03/26 00:31:25;;;;;;;6.22;1.52;;;7.90;1.00;;;;;;5006942;28;20038;-75
2023/03/26 00:33:54;;;;;;;8.10;1.80;;;7.90;1.00;;;;;;5006103;28;20391;-75
2023/03/26 00:36:22;;;;;;;4.55;1.30;;;7.90;1.00;;;;;;5008494;28;20073;-75
2023/03/26 00:38:48;;;;;;;7.50;1.75;;;7.80;1.00;;;;;;5003901;28;20034;-76
2023/03/26 00:41:16;;;;;;;6.90;2.20;;;7.80;1.00;;;;;;5004193;28;20053;-75
2023/03/26 00:43:47;;;;;;;6.03;1.52;;;7.80;1.00;;;;;;5007248;28;20038;-75
2023/03/26 00:46:14;;;;;;;4.97;1.45;;;7.80;1.00;;;;;;4994273;28;20049;-75
2023/03/26 00:48:41;;;;;;;7.43;1.63;;;7.90;1.00;;;;;;5008429;28;20048;-75
2023/03/26 00:51:09;;;;;;;3.65;1.65;;;7.80;1.00;;;;;;5012542;28;20032;-76
2023/03/26 00:53:37;;;;;;;5.00;1.45;;;7.90;1.00;;;;;;5007563;28;20038;-76
2023/03/26 00:56:05;;;;;;;7.00;2.35;;;7.80;1.00;;;;;;5006980;28;20053;-75
2023/03/26 00:58:32;;;;;;;7.47;1.50;;;7.90;1.00;;;;;;5007902;28;20049;-79
2023/03/26 01:01:02;;;;;;;8.80;1.90;;;7.90;1.00;;;;;;5009339;28;20041;-76
2023/03/26 01:03:32;;;;;;;8.35;1.90;;;8.00;1.00;;;;;;5006201;28;20387;-77
2023/03/26 01:06:06;;;;;;;7.80;1.90;;;7.90;1.00;;;;;;5006160;28;20281;-77
2023/03/26 01:08:37;;;;;;;6.22;1.75;;;7.80;1.00;;;;;;4989817;28;20049;-78
2023/03/26 01:11:12;;;;;;;4.30;1.70;;;7.80;1.00;;;;;;5005866;28;20038;-75
2023/03/26 01:13:46;;;;;;;11.85;2.03;;;7.70;1.00;;;;;;5006808;28;20463;-79
2023/03/26 01:16:50;;;;;;;3.50;1.63;;;7.60;1.00;;;;;;5005263;28;20034;-75
2023/03/26 01:19:44;;;;;;;8.07;2.10;;;7.50;1.00;;;;;;5003576;28;20466;-76
2023/03/26 01:22:18;;;;;;;5.15;1.67;;;7.40;1.00;;;;;;5005716;28;20053;-75
2023/03/26 01:24:51;;;;;;;6.55;1.50;;;7.30;1.00;;;;;;5000031;28;20030;-76
2023/03/26 01:27:50;;;;;;;8.27;1.67;;;7.30;1.00;;;;;;5009326;28;20038;-75
2023/03/26 01:30:51;;;;;;;4.38;1.60;;;7.20;1.00;;;;;;5003564;28;20034;-76
2023/03/26 01:33:32;;;;;;;4.15;1.67;;;7.20;1.00;;;;;;4973454;28;20042;-75
2023/03/26 01:36:09;;;;;;;7.32;1.60;;;7.20;1.00;;;;;;5002899;28;20263;-76
2023/03/26 01:39:17;;;;;;;13.52;2.03;;;7.20;1.00;;;;;;4999877;28;20045;-76
2023/03/26 01:41:50;;;;;;;6.93;2.10;;;7.30;1.00;;;;;;4923608;29;20047;-76
2023/03/26 01:44:30;;;;;;;6.85;3.58;;;7.40;1.00;;;;;;4921576;29;20043;-74
2023/03/26 01:46:59;;;;;;;8.82;1.88;;;7.40;1.00;;;;;;4956718;28;20053;-73
2023/03/26 01:49:30;;;;;;;5.50;2.00;;;7.30;1.00;;;;;;5002619;28;20140;-74
2023/03/26 01:51:56;;;;;;;7.63;1.73;;;7.30;1.00;;;;;;5004636;28;20030;-74
2023/03/26 01:54:27;;;;;;;6.72;2.17;;;7.30;1.00;;;;;;5002357;28;20042;-74
2023/03/26 01:57:22;;;;;;;14.85;2.50;;;7.30;1.00;;;;;;5001288;28;20045;-75
2023/03/26 01:59:57;;;;;;;6.15;1.55;;;7.30;1.00;;;;;;4981951;28;20057;-75
2023/03/26 02:02:35;;;;;;;7.90;2.05;;;7.30;1.00;;;;;;4999599;28;20034;-75
2023/03/26 02:05:25;;;;;;;9.65;2.10;;;7.40;1.00;;;;;;5007992;28;20030;-75
2023/03/26 02:08:08;;;;;;;8.43;2.33;;;7.40;1.00;;;;;;5008613;28;20037;-75
2023/03/26 02:10:44;;;;;;;4.32;1.40;;;7.40;1.00;;;;;;5001515;28;20045;-76
2023/03/26 02:13:11;;;;;;;7.72;1.83;;;7.40;1.00;;;;;;4998943;28;20064;-75
2023/03/26 02:15:39;;;;;;;7.68;1.83;;;7.40;1.00;;;;;;5004316;28;20030;-75
2023/03/26 02:18:09;;;;;;;6.22;1.40;;;7.40;1.00;;;;;;4985740;28;20041;-75
2023/03/26 02:20:36;;;;;;;8.82;1.80;;;7.40;1.00;;;;;;5002330;28;20030;-75
2023/03/26 02:23:02;;;;;;;8.30;1.70;;;7.30;1.00;;;;;;4998848;28;20044;-75
2023/03/26 02:25:30;;;;;;;9.38;1.35;;;7.30;1.00;;;;;;5004634;28;20045;-75
2023/03/26 02:27:57;;;;;;;9.38;2.47;;;7.30;1.00;;;;;;4987942;28;20045;-75
2023/03/26 02:30:25;;;;;;;4.80;2.72;;;7.30;1.00;;;;;;5012140;28;20399;-75
2023/03/26 02:32:56;;;;;;;4.82;1.17;;;7.30;1.00;;;;;;5018019;28;20061;-75
2023/03/26 02:35:22;;;;;;;10.45;1.88;;;7.30;1.00;;;;;;5002419;28;20041;-75
2023/03/26 02:37:54;;;;;;;6.20;1.95;;;7.40;1.00;;;;;;5001545;28;20053;-75
2023/03/26 02:40:21;;;;;;;4.35;1.83;;;7.40;1.00;;;;;;5000519;28;20057;-75
2023/03/26 02:42:49;;;;;;;4.85;1.77;;;7.40;1.00;;;;;;5013217;28;20046;-75
2023/03/26 02:45:16;;;;;;;4.43;1.52;;;7.40;1.00;;;;;;5006959;28;20352;-75
2023/03/26 02:48:14;;;;;;;6.90;1.40;;;7.40;1.00;;;;;;5004561;28;20049;-75
2023/03/26 02:50:43;;;;;;;5.35;1.63;;;7.40;1.00;;;;;;5004845;28;20050;-78
2023/03/26 02:53:36;;;;;;;6.40;1.40;;;7.40;1.00;;;;;;5001569;28;20045;-75
2023/03/26 02:56:19;;;;;;;7.05;1.50;;;7.40;1.00;;;;;;5000614;28;20068;-75
2023/03/26 02:58:59;;;;;;;11.50;1.75;;;7.50;1.00;;;;;;4996410;28;20053;-75
2023/03/26 03:01:29;;;;;;;5.65;1.50;;;7.50;1.00;;;;;;5001380;28;20376;-75
2023/03/26 03:03:56;;;;;;;;;;;7.70;1.00;;;;;;5005735;28;20032;-75
2023/03/26 03:06:34;;;;;;;6.18;1.52;;;7.70;1.00;;;;;;5004943;28;19909;-75
2023/03/26 03:09:01;;;;;;;5.50;1.50;;;7.80;1.00;;;;;;4999606;28;20387;-75
2023/03/26 03:11:40;;;;;;;7.53;1.52;;;7.80;1.00;;;;;;5005700;28;20057;-75
2023/03/26 03:14:07;;;;;;;10.55;1.88;;;7.80;1.00;;;;;;5017152;28;20476;-76
2023/03/26 03:16:34;;;;;;;8.70;1.75;;;7.80;1.00;;;;;;4985392;28;20041;-77
2023/03/26 03:19:07;;;;;;;11.25;2.25;;;7.70;1.00;;;;;;4994718;28;20353;-75
2023/03/26 03:21:38;;;;;;;3.90;1.40;;;7.60;1.00;;;;;;5000737;28;20166;-75
2023/03/26 03:24:05;;;;;;;7.80;1.45;;;7.60;1.00;;;;;;5007985;28;20042;-75
2023/03/26 03:26:40;;;;;;;4.40;1.25;;;7.50;1.00;;;;;;5023565;28;20057;-74
2023/03/26 03:29:18;;;;;;;9.43;1.70;;;7.50;1.00;;;;;;5004222;28;20050;-74
2023/03/26 03:31:44;;;;;;;7.03;2.05;;;7.40;1.00;;;;;;5004360;28;20388;-78
2023/03/26 03:34:24;;;;;;;10.18;2.95;;;7.30;1.00;;;;;;5005676;28;20049;-75
2023/03/26 03:36:51;;;;;;;4.15;1.70;;;7.40;1.00;;;;;;5006157;28;20038;-74
2023/03/26 03:39:29;;;;;;;6.72;2.42;;;7.40;1.00;;;;;;5020159;28;20052;-74
2023/03/26 03:41:55;;;;;;;3.50;1.38;;;7.30;1.00;;;;;;5005346;28;20050;-75
2023/03/26 03:44:22;;;;;;;5.57;1.67;;;7.30;1.00;;;;;;5003674;28;20054;-75
2023/03/26 03:46:52;;;;;;;6.78;1.50;;;7.30;1.00;;;;;;5006145;28;20042;-74
2023/03/26 03:49:19;;;;;;;9.88;1.63;;;7.30;1.00;;;;;;5004707;28;20053;-75
2023/03/26 03:51:45;;;;;;;5.88;1.88;;;7.30;1.00;;;;;;5001150;28;20472;-74
2023/03/26 03:54:21;;;;;;;7.18;2.00;;;7.30;1.00;;;;;;5006060;28;20038;-74
2023/03/26 03:57:17;;;;;;;8.73;2.70;;;7.40;1.00;;;;;;5000432;28;20494;-74
2023/03/26 04:00:10;;;;;;;5.70;1.45;;;7.40;1.00;;;;;;5004999;28;20057;-75
2023/03/26 04:02:45;;;;;;;7.20;1.77;;;7.50;1.00;;;;;;5003311;28;20483;-75
2023/03/26 04:05:13;;;;;;;4.32;1.35;;;7.50;1.00;;;;;;5026727;28;20041;-74
2023/03/26 04:07:45;;;;;;;8.85;2.83;;;7.60;1.00;;;;;;4983285;28;20045;-75
2023/03/26 04:10:23;;;;;;;7.25;1.63;;;7.70;1.00;;;;;;5006095;28;20057;-74
2023/03/26 04:13:09;;;;;;;8.73;1.70;;;7.70;1.00;;;;;;5002902;28;20050;-75
2023/03/26 04:15:51;;;;;;;7.63;2.92;;;7.60;1.00;;;;;;5006306;28;20068;-75
2023/03/26 04:18:19;;;;;;;6.03;1.67;;;7.70;1.00;;;;;;5004065;28;20042;-75
2023/03/26 04:20:46;;;;;;;6.43;1.80;;;7.60;1.00;;;;;;5022345;28;20149;-75
2023/03/26 04:23:17;;;;;;;6.43;2.40;;;7.60;1.00;;;;;;5007203;28;20452;-75
2023/03/26 04:25:52;;;;;;;5.40;1.35;;;7.70;1.00;;;;;;5003242;28;20047;-74
2023/03/26 04:28:45;;;;;;;5.72;1.60;;;7.70;1.00;;;;;;5008618;28;20056;-75
2023/03/26 04:31:27;;;;;;;4.90;1.83;;;7.60;1.00;;;;;;5022395;28;20480;-75
2023/03/26 04:33:58;;;;;;;3.17;1.75;;;7.60;1.00;;;;;;4998165;28;20045;-74
2023/03/26 04:36:27;;;;;;;5.65;1.58;;;7.70;1.00;;;;;;5005879;28;20046;-74
2023/03/26 04:38:57;;;;;;;10.05;1.88;;;7.60;1.00;;;;;;5007504;28;20042;-75
2023/03/26 04:41:39;;;;;;;4.82;1.67;;;7.60;1.00;;;;;;5023631;28;20050;-75
2023/03/26 04:44:13;;;;;;;8.05;2.15;;;7.60;1.00;;;;;;5005261;28;20477;-75
2023/03/26 04:46:54;;;;;;;9.93;1.67;;;7.50;1.00;;;;;;5004744;28;20053;-75
2023/03/26 04:49:27;;;;;;;4.57;1.60;;;7.50;1.00;;;;;;4993943;28;20053;-74
2023/03/26 04:51:53;;;;;;;6.35;1.33;;;7.50;1.00;;;;;;5005365;28;20069;-74
2023/03/26 04:54:44;;;;;;;6.82;1.60;;;7.50;1.00;;;;;;5005398;28;20049;-75
2023/03/26 04:57:26;;;;;;;5.20;1.33;;;7.50;1.00;;;;;;4987171;28;20487;-74
2023/03/26 04:59:59;;;;;;;6.43;1.55;;;7.50;1.00;;;;;;4997581;28;20062;-76
2023/03/26 05:02:25;;;;;;;5.60;2.05;;;7.50;1.00;;;;;;5001349;28;20165;-75
2023/03/26 05:04:55;;;;;;;9.30;1.65;;;7.50;1.00;;;;;;5007375;28;20054;-75
2023/03/26 05:07:22;;;;;;;5.65;1.65;;;7.60;1.00;;;;;;5002307;28;20042;-75
2023/03/26 05:09:53;;;;;;;12.93;1.97;;;7.60;1.00;;;;;;5000964;28;20053;-75
2023/03/26 05:12:23;;;;;;;6.78;1.95;;;7.60;1.00;;;;;;5005280;28;20049;-76
2023/03/26 05:14:57;;;;;;;8.05;1.80;;;7.60;1.00;;;;;;5004202;28;20050;-75
2023/03/26 05:17:45;;;;;;;6.00;1.70;;;7.60;1.00;;;;;;5006963;28;20042;-75
2023/03/26 05:20:25;;;;;;;5.97;1.85;;;7.60;1.00;;;;;;4998752;28;20050;-75
2023/03/26 05:22:51;;;;;;;8.35;1.75;;;7.60;1.00;;;;;;4996486;28;20046;-79
2023/03/26 05:25:27;;;;;;;6.28;1.60;;;7.70;1.00;;;;;;4999439;28;20045;-75
2023/03/26 05:27:54;;;;;;;9.23;1.65;;;7.70;1.00;;;;;;5004784;28;20046;-76
2023/03/26 05:30:24;;;;;;;5.43;1.80;;;7.60;1.00;;;;;;5022705;28;20052;-75
2023/03/26 05:32:55;;;;;;;6.55;1.80;;;7.70;1.00;;;;;;5004735;28;20403;-74
2023/03/26 05:35:27;;;;;;;8.27;1.58;;;7.70;1.00;;;;;;5004118;28;20039;-74
2023/03/26 05:37:54;;;;;;;7.07;2.00;;;7.70;1.00;;;;;;5003747;28;20042;-74
2023/03/26 05:40:23;;;;;;;5.38;1.50;;;7.70;1.00;;;;;;5001611;28;20051;-74
2023/03/26 05:42:57;;;;;;;5.40;1.67;;;7.70;1.00;;;;;;5002413;28;20057;-74
2023/03/26 05:45:29;;;;;;;8.43;1.83;;;7.80;1.00;;;;;;5001721;28;20399;-75
2023/03/26 05:47:57;;;;;;;5.55;1.85;;;7.80;1.00;;;;;;5000885;28;20048;-74
2023/03/26 05:50:26;;;;;;;9.18;2.03;;;7.80;1.00;;;;;;5004361;28;20064;-74
2023/03/26 05:52:57;;;;;;;10.65;2.90;;;7.80;1.00;;;;;;4997741;28;20046;-74
2023/03/26 05:55:44;;;;;;;9.35;3.00;;;7.70;1.00;;;;;;5006731;28;20038;-74
2023/03/26 05:58:31;;;;;;;3.63;1.45;;;7.60;1.00;;;;;;5001074;28;20037;-74
2023/03/26 06:01:17;;;;;;;3.40;1.60;;;7.60;1.00;;;;;;5001526;28;20364;-75
2023/03/26 06:04:03;;;;;;;3.60;1.98;;;7.40;58.20;;;;;;5000970;28;20054;-74
2023/03/26 06:06:34;;;;;;;6.38;2.92;;;7.40;99.90;;;;;;5002582;28;20049;-74
2023/03/26 06:09:01;;;;;;;6.60;2.17;;;7.40;99.90;;;;;;5001720;28;20466;-74
2023/03/26 06:11:28;;;;;;;9.45;2.85;;;7.30;99.90;;;;;;5006308;28;20038;-74
2023/03/26 06:13:54;;;;;;;7.25;2.08;;;7.40;99.90;;;;;;5003364;28;20064;-77
2023/03/26 06:16:20;;;;;;;5.53;1.88;;;7.40;99.90;;;;;;5005226;28;20042;-74
2023/03/26 06:18:55;;;;;;;6.53;2.40;;;7.30;99.90;;;;;;5000681;28;20040;-77
2023/03/26 06:21:21;;;;;;;6.95;3.17;;;7.30;99.90;;;;;;5003122;28;20050;-74
2023/03/26 06:23:55;;;;;;;8.10;2.50;;;7.40;99.90;;;;;;5020182;28;20049;-75
2023/03/26 06:26:48;;;;;;;7.55;2.53;;;7.40;99.90;;;;;;4982234;28;20034;-74
2023/03/26 06:29:22;;;;;;;16.00;4.25;;;7.40;99.90;;;;;;5004256;28;20050;-74
2023/03/26 06:31:56;;;;;;;8.52;3.35;;;7.40;99.90;;;;;;4981201;28;20042;-74
2023/03/26 06:34:26;;;;;;;8.95;2.53;;;7.40;99.90;;;;;;4987462;28;20380;-74
2023/03/26 06:36:53;;;;;;;6.70;2.65;;;7.40;99.90;;;;;;4987663;28;20053;-75
2023/03/26 06:39:21;;;;;;;12.95;2.70;;;7.40;99.90;;;;;;4998590;28;20045;-74
2023/03/26 06:42:13;;;;;;;8.38;2.72;;;7.40;99.90;;;;;;4997984;28;20463;-73
2023/03/26 06:45:00;;;;;;;12.38;2.72;;;7.50;99.90;;;;;;4994320;28;20042;-73
2023/03/26 06:47:46;;;;;;;5.75;2.33;;;7.60;99.90;;;;;;4977470;28;20049;-73
2023/03/26 06:50:42;;;;;;;8.75;2.20;;;7.50;99.90;;;;;;4976528;28;20050;-74
2023/03/26 06:53:20;;;;;;;10.48;3.15;;;7.40;99.90;;;;;;4986390;28;20042;-74
2023/03/26 06:55:56;;;;;;;5.75;1.75;;;7.40;99.90;;;;;;4986775;28;20038;-74
2023/03/26 06:58:45;;;;;;;9.07;2.53;;;7.40;99.90;;;;;;4965197;28;20057;-74
2023/03/26 07:01:29;;;;;;;13.60;2.20;;;7.40;99.90;;;;;;5007751;28;20043;-73
2023/03/26 07:04:14;;;;;;;9.63;2.88;;;7.40;99.90;;;;;;5002563;28;20049;-73
2023/03/26 07:06:59;;;;;;;12.07;2.45;;;7.40;99.90;;;;;;5008571;28;20040;-74
2023/03/26 07:09:44;;;;;;;7.88;2.15;;;7.40;99.90;;;;;;4994869;28;20049;-75
2023/03/26 07:12:33;;;;;;;6.05;2.42;;;7.40;99.90;;;;;;4993051;28;20395;-74
2023/03/26 07:15:18;;;;;;;12.27;3.10;;;7.50;99.90;;;;;;4999158;28;20046;-73
2023/03/26 07:18:10;;;;;;;8.07;2.28;;;7.50;99.90;;;;;;4997682;28;20049;-76
2023/03/26 07:20:38;;;;;;;9.00;2.45;;;7.60;99.90;;;;;;4982382;28;20046;-76
2023/03/26 07:23:05;;;;;;;7.95;2.28;;;7.60;99.90;;;;;;4985209;28;20049;-76
2023/03/26 07:25:44;;;;;;;10.82;4.28;;;7.50;99.90;;;;;;4984603;28;20038;-76
2023/03/26 07:28:36;;;;;;;11.18;2.60;;;7.60;99.90;;;;;;4997835;28;20057;-77
2023/03/26 07:31:35;;;;;;;8.00;2.17;;;7.50;99.90;;;;;;5007759;28;20046;-77
2023/03/26 07:34:40;;;;;;;13.63;2.92;;;7.50;99.90;;;;;;5000389;28;20055;-77
2023/03/26 07:37:43;;;;;;;10.70;3.30;;;7.60;99.90;;;;;;4985883;28;20367;-75
2023/03/26 07:40:32;;;;;;;10.48;2.70;;;7.60;99.90;;;;;;5000721;28;20042;-76
2023/03/26 07:43:36;;;;;;;10.73;3.33;;;7.70;99.90;;;;;;4942725;28;20047;-76
2023/03/26 07:46:30;;;;;;;13.23;4.05;;;7.80;99.90;;;;;;4994826;28;20486;-76
2023/03/26 07:49:20;;;;;;;11.00;4.35;;;7.90;99.90;;;;;;4985605;28;20509;-75
2023/03/26 07:52:19;;;;;;;12.00;3.22;;;8.00;99.90;;;;;;4993976;28;20047;-76
2023/03/26 07:54:57;;;;;;;11.05;3.28;;;8.10;99.90;;;;;;4989379;28;20042;-76
2023/03/26 07:57:56;;;;;;;10.27;2.88;;;8.10;99.90;;;;;;5002789;28;20045;-76
2023/03/26 08:00:57;;;;;;;6.25;2.22;;;8.00;99.90;;;;;;4973849;28;20058;-79
2023/03/26 08:04:15;;;;;;;8.98;2.75;;;7.90;99.90;;;;;;5004559;28;20049;-75
2023/03/26 08:07:14;;;;;;;9.82;2.92;;;7.90;99.90;;;;;;4980392;28;20143;-76
2023/03/26 08:10:27;;;;;;;8.18;2.95;;;7.80;99.90;;;;;;4992961;28;20073;-75
2023/03/26 08:13:21;;;;;;;9.95;4.10;;;7.80;99.90;;;;;;4990224;28;20042;-75
2023/03/26 08:15:57;;;;;;;7.47;2.72;;;7.70;99.90;;;;;;4982667;28;20054;-75
2023/03/26 08:18:54;;;;;;;9.35;2.30;;;7.70;99.90;;;;;;5005469;28;20030;-82
2023/03/26 08:22:05;;;;;;;14.60;3.00;;;7.60;99.90;;;;;;5000598;28;20038;-76
2023/03/26 08:24:40;;;;;;;12.55;2.70;;;7.50;99.90;;;;;;4903550;29;20044;-76
2023/03/26 08:27:36;;;;;;;8.32;2.65;;;7.60;99.90;;;;;;4919084;29;20036;-76
2023/03/26 08:30:13;;;;;;;8.88;2.47;;;7.60;99.90;;;;;;4913207;29;20541;-76
2023/03/26 08:32:40;;;;;;;8.65;3.55;;;7.50;99.90;;;;;;4923141;29;20051;-77
2023/03/26 08:35:10;;;;;;;8.82;3.13;;;7.40;99.90;;;;;;4920402;29;20433;-76
2023/03/26 08:37:36;;;;;;;10.63;2.77;;;7.40;99.90;;;;;;4921105;29;20040;-76
2023/03/26 08:40:02;;;;;;;9.57;2.75;;;7.40;99.90;;;;;;4921648;29;20497;-76
2023/03/26 08:43:08;;;;;;;9.52;2.83;;;7.40;99.90;;;;;;4910845;29;20094;-77
2023/03/26 08:45:42;;;;;;;9.90;3.33;;;7.40;99.90;;;;;;4922062;29;20048;-77
2023/03/26 08:48:46;;;;;;;7.88;3.08;;;7.40;99.90;;;;;;4915233;29;20332;-78
2023/03/26 08:51:22;;;;;;;9.63;3.45;;;7.50;99.90;;;;;;4915419;29;20084;-76
2023/03/26 08:54:34;;;;;;;10.73;2.83;;;7.50;99.90;;;;;;4920468;29;20036;-77
2023/03/26 08:57:27;;;;;;;9.32;3.13;;;7.60;99.90;;;;;;5005687;28;20045;-79
2023/03/26 09:00:20;;;;;;;6.45;3.20;;;7.60;99.90;;;;;;4983311;28;20062;-77
2023/03/26 09:03:24;;;;;;;7.47;3.17;;;7.60;99.90;;;;;;5004505;28;20495;-77
2023/03/26 09:06:12;;;;;;;7.53;2.60;;;7.60;99.90;;;;;;5007058;28;20038;-77
2023/03/26 09:09:00;;;;;;;10.30;3.40;;;7.60;99.90;;;;;;5001531;28;20038;-78
2023/03/26 09:11:48;;;;;;;14.15;3.22;;;7.70;99.90;;;;;;4999478;28;20042;-76
2023/03/26 09:14:20;;;;;;;14.25;3.03;;;7.90;99.90;;;;;;5002766;28;20026;-76
2023/03/26 09:16:49;;;;;;;9.45;2.75;;;8.30;99.90;;;;;;5006398;28;20038;-76
2023/03/26 09:19:32;;;;;;;7.53;2.58;;;8.70;99.90;;;;;;5007483;28;20030;-77
2023/03/26 09:22:04;;;;;;;8.00;2.85;;;8.70;99.90;;;;;;4999983;28;20037;-75
2023/03/26 09:24:33;;;;;;;11.75;2.95;;;8.50;99.90;;;;;;5005928;28;20119;-76
2023/03/26 09:27:45;;;;;;;10.40;3.22;;;8.60;99.90;;;;;;5000646;28;20036;-76
2023/03/26 09:30:48;;;;;;;3.60;1.70;;;8.60;99.90;;;;;;4958816;28;20050;-76
2023/03/26 09:33:43;;;;;;;5.35;2.00;;;8.70;99.90;;;;;;5004769;28;20456;-77
2023/03/26 09:36:21;;;;;;;7.43;1.88;;;8.60;99.90;;;;;;4999996;28;20050;-76
2023/03/26 09:39:28;;;;;;;6.85;2.45;;;8.70;99.90;;;;;;4977651;28;20054;-76
2023/03/26 09:42:08;;;;;;;6.53;1.27;;;8.60;99.90;;;;;;4966209;28;20420;-75
2023/03/26 09:44:47;;;;;;;5.75;2.30;;;8.50;99.90;;;;;;5002802;28;20026;-77
2023/03/26 09:47:35;;;;;;;3.72;1.40;;;8.60;99.90;;;;;;5004313;28;20029;-76
2023/03/26 09:50:36;;;;;;;9.27;2.20;;;8.90;99.90;;;;;;4996019;28;20455;-78
2023/03/26 09:53:05;;;;;;;;;;;9.10;99.90;;;;;;5002708;28;20026;-79
2023/03/26 09:55:49;;;;;;;6.07;1.10;;;9.30;99.90;;;;;;4988126;28;19906;-76
2023/03/26 09:58:34;;;;;;;7.72;1.30;;;9.40;99.90;;;;;;5001469;28;20551;-78
2023/03/26 10:01:13;;;;;;;7.05;1.38;;;9.40;99.90;;;;;;5000708;28;20035;-76
2023/03/26 10:03:55;;;;;;;5.32;1.20;;;9.60;81.30;;;;;;4987232;28;20042;-76
2023/03/26 10:06:27;;;;;;;6.78;2.15;;;9.70;34.00;;;;;;5000337;28;20470;-76
2023/03/26 10:09:00;;;;;;;6.28;2.35;;;9.70;1.00;;;;;;4999840;28;20498;-77
2023/03/26 10:11:55;;;;;;;4.53;1.20;;;10.00;1.00;;;;;;5003556;28;20045;-76
2023/03/26 10:14:34;;;;;;;7.57;1.70;;;10.20;1.00;;;;;;5004115;28;20030;-77
2023/03/26 10:17:30;;;;;;;4.43;1.40;;;10.40;1.00;;;;;;5002916;28;20046;-76
2023/03/26 10:20:25;;;;;;;5.25;1.75;;;10.90;1.00;;;;;;4986253;28;20042;-76
2023/03/26 10:23:18;;;;;;;4.10;1.42;;;11.20;1.00;;;;;;4965838;28;20050;-76
2023/03/26 10:26:17;;;;;;;3.38;1.20;;;11.10;1.00;;;;;;4998299;28;20049;-76
2023/03/26 10:28:52;;;;;;;9.95;1.73;;;11.10;1.00;;;;;;4988028;28;20042;-85
2023/03/26 10:31:25;;;;;;;4.07;1.20;;;11.40;1.00;;;;;;4994723;28;20031;-77
2023/03/26 10:34:16;;;;;;;8.57;1.92;;;11.40;1.00;;;;;;4999122;28;20037;-76
2023/03/26 10:37:19;;;;;;;5.80;1.27;;;11.70;1.00;;;;;;4997158;28;20029;-76
2023/03/26 10:39:48;;;;;;;5.78;1.92;;;12.10;1.00;;;;;;4992689;28;20030;-75
2023/03/26 10:42:31;;;;;;;6.97;2.00;;;12.20;1.00;;;;;;5001453;28;20475;-75
2023/03/26 10:45:23;;;;;;;4.22;1.38;;;12.00;1.00;;;;;;4998954;28;20030;-75
2023/03/26 10:48:35;;;;;;;3.53;1.70;;;11.90;1.00;;;;;;4994764;28;20041;-75
2023/03/26 10:51:25;;;;;;;4.75;1.38;;;11.50;1.00;;;;;;4999842;28;20046;-76
2023/03/26 10:54:04;;;;;;;6.63;1.48;;;11.10;1.00;;;;;;5002267;28;20035;-75
2023/03/26 10:56:35;;;;;;;7.28;2.42;;;10.90;1.00;;;;;;4981772;28;20042;-75
2023/03/26 10:59:07;;;;;;;6.15;2.60;;;10.80;1.00;;;;;;4982965;28;20053;-75
2023/03/26 11:01:41;;;;;;;9.93;2.33;;;10.90;1.00;;;;;;5005544;28;20042;-75
2023/03/26 11:04:18;;;;;;;7.15;2.10;;;10.70;1.00;;;;;;5002498;28;20041;-76
2023/03/26 11:07:00;;;;;;;9.93;3.78;;;10.70;6.10;;;;;;4982425;28;20398;-75
2023/03/26 11:09:48;;;;;;;3.83;2.00;;;10.70;7.30;;;;;;4998503;28;20491;-74
2023/03/26 11:12:43;;;;;;;8.27;2.53;;;10.60;19.90;;;;;;5002667;28;20042;-75
2023/03/26 11:15:18;;;;;;;9.15;2.45;;;10.70;30.70;;;;;;5000894;28;20035;-76
2023/03/26 11:18:14;;;;;;;5.65;2.72;;;11.20;50.50;;;;;;4999442;28;20034;-74
2023/03/26 11:21:02;;;;;;;5.00;2.10;;;11.70;58.80;;;;;;4971400;28;20073;-73
2023/03/26 11:23:41;;;;;;;4.25;1.73;;;12.00;1.00;;;;;;5004701;28;20050;-75
2023/03/26 11:26:16;;;;;;;3.95;1.73;;;12.10;1.00;;;;;;4984513;28;20041;-75
2023/03/26 11:28:50;;;;;;;5.53;1.83;;;11.90;1.00;;;;;;4989602;28;20049;-74
2023/03/26 11:31:39;;;;;;;3.60;1.30;;;11.80;1.00;;;;;;5003543;28;20382;-74
2023/03/26 11:34:16;;;;;;;4.95;1.42;;;11.80;1.00;;;;;;4999031;28;20040;-74
2023/03/26 11:36:50;;;;;;;4.25;1.10;;;11.80;1.00;;;;;;4996200;28;20467;-76
2023/03/26 11:39:32;;;;;;;3.60;1.17;;;11.80;1.00;;;;;;4994449;28;20026;-74
2023/03/26 11:42:12;;;;;;;1.52;0.70;;;11.80;1.00;;;;;;4995522;28;20086;-77
2023/03/26 11:44:51;;;;;;;2.33;1.42;;;12.00;1.00;;;;;;4999865;28;20046;-82
2023/03/26 11:47:22;;;;;;;2.58;0.60;;;11.90;1.00;;;;;;5005618;28;20041;-76
2023/03/26 11:49:52;;;;;;;1.90;0.40;;;11.90;1.00;;;;;;5000372;28;20036;-74
2023/03/26 11:52:18;;;;;;;1.40;0.63;;;11.80;1.00;;;;;;5007051;28;20038;-73
2023/03/26 11:54:47;;;;;;;3.22;0.90;;;11.70;1.00;;;;;;5003555;28;20021;-74
2023/03/26 11:57:24;;;;;;;1.67;0.73;;;11.60;1.00;;;;;;4998748;28;20348;-73
2023/03/26 12:00:19;;;;;;;4.57;1.20;;;11.40;1.00;;;;;;5000836;28;20034;-74
2023/03/26 12:02:47;;;;;;;6.10;1.55;;;11.20;1.00;;;;;;5005654;28;20061;-75
2023/03/26 12:05:23;;;;;;;2.92;1.08;;;11.00;1.00;;;;;;5005535;28;20053;-74
2023/03/26 12:07:59;;;;;;;1.75;0.77;;;10.90;1.00;;;;;;5006342;28;20022;-74
2023/03/26 12:10:41;;;;;;;3.65;0.80;;;11.00;1.00;;;;;;5020010;28;20115;-74
2023/03/26 12:13:47;;;;;;;1.52;0.60;;;11.10;1.00;;;;;;5003916;28;20035;-74
2023/03/26 12:16:17;;;;;;;5.75;0.60;;;11.50;1.00;;;;;;5005504;28;20047;-74
2023/03/26 12:18:45;;;;;;;2.00;0.70;;;11.70;1.00;;;;;;5002713;28;20034;-74
2023/03/26 12:21:15;;;;;;;2.80;0.70;;;11.90;1.00;;;;;;5009012;28;20022;-74
2023/03/26 12:24:00;;;;;;;2.58;0.40;;;12.00;1.00;;;;;;5008436;28;20368;-74
2023/03/26 12:26:41;;;;;;;4.43;0.68;;;12.00;1.00;;;;;;5002197;28;20030;-75
2023/03/26 12:29:15;;;;;;;4.75;0.70;;;12.10;1.00;;;;;;5011237;28;20168;-77
2023/03/26 12:31:53;;;;;;;2.00;0.38;;;12.30;1.00;;;;;;5005415;28;20033;-75
2023/03/26 12:34:30;;;;;;;2.85;0.52;;;12.20;1.00;;;;;;5001874;28;20030;-75
2023/03/26 12:37:00;;;;;;;0.70;0.38;;;12.30;1.00;;;;;;5007328;28;20388;-75
2023/03/26 12:39:34;;;;;;;1.67;0.65;;;12.60;1.00;;;;;;5009309;28;20030;-75
2023/03/26 12:42:01;;;;;;;1.33;0.47;;;13.00;1.00;;;;;;5005789;28;20038;-75
2023/03/26 12:44:42;;;;;;;3.58;0.60;;;13.10;99.90;;;;;;5006392;28;20685;-75
2023/03/26 12:47:08;;;;;;;;;;;13.10;99.90;;;;;;5009011;28;20030;-78
2023/03/26 12:49:38;;;;;;;3.47;0.65;;;13.30;99.90;;;;;;5013403;28;19909;-74
2023/03/26 12:52:18;;;;;;;2.67;0.77;;;13.50;99.90;;;;;;5005897;28;20045;-76
2023/03/26 12:54:53;;;;;;;2.60;0.45;;;13.60;99.90;;;;;;5002919;28;20049;-76
2023/03/26 12:58:20;;;;;;;1.45;0.40;;;13.60;99.90;;;;;;5004598;28;20030;-76
2023/03/26 13:01:21;;;;;;;2.08;0.47;;;13.80;99.90;;;;;;4919472;29;20042;-76
2023/03/26 13:03:54;;;;;;;1.25;0.55;;;14.00;99.90;;;;;;5008442;28;20030;-76
2023/03/26 13:06:46;;;;;;;1.80;0.57;;;13.90;99.90;;;;;;4998343;28;20041;-76
2023/03/26 13:09:18;;;;;;;1.30;0.75;;;13.80;99.90;;;;;;4999744;28;20035;-76
2023/03/26 13:12:21;;;;;;;2.72;0.40;;;13.90;99.90;;;;;;4986892;28;20057;-76
2023/03/26 13:14:50;;;;;;;1.90;0.55;;;13.90;99.90;;;;;;4986001;28;20045;-76
2023/03/26 13:17:29;;;;;;;3.00;0.80;;;13.90;99.90;;;;;;5007783;28;20045;-76
2023/03/26 13:20:00;;;;;;;3.33;0.40;;;13.80;99.90;;;;;;5004050;28;20498;-77
2023/03/26 13:23:07;;;;;;;0.95;0.60;;;14.20;99.90;;;;;;4986727;28;20050;-75
2023/03/26 13:25:33;;;;;;;4.18;0.65;;;14.40;99.90;;;;;;5002208;28;20035;-74
2023/03/26 13:28:21;;;;;;;0.98;0.30;;;14.90;99.90;;;;;;5006372;28;20046;-75
2023/03/26 13:30:58;;;;;;;1.83;0.40;;;15.20;99.90;;;;;;4998339;28;20038;-76
2023/03/26 13:33:51;;;;;;;2.45;0.52;;;14.90;99.90;;;;;;4985791;28;20059;-76
2023/03/26 13:36:22;;;;;;;1.08;0.63;;;14.70;99.90;;;;;;4982785;28;20042;-76
2023/03/26 13:38:56;;;;;;;2.55;0.60;;;14.50;99.90;;;;;;5002899;28;20423;-76
2023/03/26 13:41:36;;;;;;;4.45;1.65;;;14.50;99.90;;;;;;5003304;28;20069;-76
2023/03/26 13:44:28;;;;;;;1.65;0.63;;;14.40;99.90;;;;;;4996110;28;20039;-76
2023/03/26 13:47:01;;;;;;;1.48;0.50;;;14.20;99.90;;;;;;5007551;28;20038;-76
2023/03/26 13:49:35;;;;;;;3.45;0.75;;;14.10;99.90;;;;;;5002067;28;20114;-76
2023/03/26 13:52:16;;;;;;;2.10;0.45;;;14.00;99.90;;;;;;4999625;28;20039;-76
2023/03/26 13:54:47;;;;;;;1.63;0.60;;;14.10;99.90;;;;;;5006607;28;20037;-76
2023/03/26 13:57:27;;;;;;;2.30;0.90;;;14.00;99.90;;;;;;5006509;28;20041;-76
2023/03/26 14:00:20;;;;;;;4.57;0.70;;;13.60;99.90;;;;;;4999465;28;20053;-76
2023/03/26 14:03:02;;;;;;;4.47;1.25;;;13.60;99.90;;;;;;5005423;28;20572;-74